createdAt,value
2024-02-11T00:00:49.392Z,19.90
2024-02-11T00:03:18.506Z,17.25
2024-02-11T00:05:45.826Z,21.48
2024-02-11T00:08:13.220Z,15.07
2024-02-11T00:10:40.315Z,17.98
2024-02-11T00:13:07.348Z,16.27
2024-02-11T00:15:34.382Z,16.33
2024-02-11T00:18:01.728Z,15.63
2024-02-11T00:20:28.933Z,16.65
2024-02-11T00:22:56.093Z,17.25
2024-02-11T00:25:23.133Z,16.90
2024-02-11T00:27:54.508Z,17.63
2024-02-11T00:30:24.417Z,15.40
2024-02-11T00:32:52.726Z,18.15
2024-02-11T00:35:20.344Z,17.15
2024-02-11T00:37:47.816Z,18.45
2024-02-11T00:40:14.884Z,18.55
2024-02-11T00:42:42.457Z,16.67
2024-02-11T00:45:13.331Z,15.50
2024-02-11T00:47:43.574Z,14.98
2024-02-11T00:50:15.328Z,15.77
2024-02-11T00:52:42.801Z,15.10
2024-02-11T00:55:13.017Z,16.52
2024-02-11T00:57:40.016Z,16.48
2024-02-11T01:00:16.727Z,15.95
2024-02-11T01:02:44.177Z,14.38
2024-02-11T01:05:14.787Z,17.95
2024-02-11T01:07:42.111Z,13.52
2024-02-11T01:10:13.164Z,13.82
2024-02-11T01:12:45.461Z,17.40
2024-02-11T01:17:42.167Z,12.50
2024-02-11T01:20:14.536Z,15.80
2024-02-11T01:25:12.367Z,15.65
2024-02-11T01:27:39.332Z,16.30
2024-02-11T01:30:07.715Z,17.73
2024-02-11T01:32:34.740Z,13.98
2024-02-11T01:35:01.869Z,12.95
2024-02-11T01:37:29.087Z,15.15
2024-02-11T01:39:56.038Z,18.13
2024-02-11T01:42:23.048Z,16.73
2024-02-11T01:44:50.091Z,13.63
2024-02-11T01:47:17.308Z,15.57
2024-02-11T01:49:44.463Z,13.02
2024-02-11T01:52:11.789Z,16.80
2024-02-11T01:54:39.010Z,14.95
2024-02-11T01:57:06.037Z,19.75
2024-02-11T01:59:37.978Z,13.27
2024-02-11T02:02:09.877Z,20.90
2024-02-11T02:04:38.706Z,13.98
2024-02-11T02:07:05.754Z,18.08
2024-02-11T02:09:33.693Z,16.70
2024-02-11T02:12:03.905Z,15.30
2024-02-11T02:14:30.891Z,13.40
2024-02-11T02:16:58.271Z,15.15
2024-02-11T02:19:26.886Z,17.83
2024-02-11T02:21:55.427Z,12.43
2024-02-11T02:24:22.576Z,13.50
2024-02-11T02:26:49.626Z,17.45
2024-02-11T02:29:16.721Z,13.23
2024-02-11T02:31:43.922Z,14.57
2024-02-11T02:34:10.928Z,21.45
2024-02-11T02:36:38.476Z,14.95
2024-02-11T02:39:07.207Z,14.35
2024-02-11T02:41:34.352Z,14.90
2024-02-11T02:44:01.428Z,15.13
2024-02-11T02:46:32.154Z,13.75
2024-02-11T02:48:59.299Z,15.60
2024-02-11T02:51:26.270Z,13.02
2024-02-11T02:53:53.419Z,14.18
2024-02-11T02:56:20.416Z,15.77
2024-02-11T02:58:47.500Z,17.17
2024-02-11T03:01:21.642Z,16.58
2024-02-11T03:03:49.287Z,17.02
2024-02-11T03:06:16.652Z,17.65
2024-02-11T03:08:43.653Z,15.15
2024-02-11T03:11:10.750Z,15.32
2024-02-11T03:13:37.908Z,16.05
2024-02-11T03:16:05.399Z,14.95
2024-02-11T03:18:32.488Z,13.45
2024-02-11T03:21:00.802Z,18.17
2024-02-11T03:23:27.933Z,16.55
2024-02-11T03:25:54.986Z,14.82
2024-02-11T03:28:21.999Z,15.40
2024-02-11T03:30:48.961Z,15.18
2024-02-11T03:33:15.966Z,15.30
2024-02-11T03:35:43.723Z,15.48
2024-02-11T03:38:10.813Z,15.93
2024-02-11T03:40:38.047Z,16.27
2024-02-11T03:43:05.142Z,16.60
2024-02-11T03:45:32.050Z,16.55
2024-02-11T03:47:59.211Z,16.55
2024-02-11T03:50:27.237Z,18.08
2024-02-11T03:52:54.449Z,17.27
2024-02-11T03:55:21.720Z,15.98
2024-02-11T03:57:48.806Z,15.18
2024-02-11T04:00:26.044Z,17.20
2024-02-11T04:02:56.163Z,17.02
2024-02-11T04:05:27.368Z,17.77
2024-02-11T04:07:55.231Z,15.35
2024-02-11T04:10:29.883Z,16.25
2024-02-11T04:13:00.137Z,13.20
2024-02-11T04:15:28.712Z,13.88
2024-02-11T04:17:57.781Z,14.82
2024-02-11T04:20:27.318Z,17.05
2024-02-11T04:22:56.832Z,17.05
2024-02-11T04:25:26.460Z,19.63
2024-02-11T04:27:53.808Z,15.70
2024-02-11T04:30:20.958Z,18.55
2024-02-11T04:32:49.396Z,20.63
2024-02-11T04:35:16.672Z,19.20
2024-02-11T04:37:54.805Z,23.23
2024-02-11T04:40:22.192Z,16.40
2024-02-11T04:42:53.876Z,17.67
2024-02-11T04:45:24.866Z,17.60
2024-02-11T04:47:55.130Z,15.68
2024-02-11T04:50:22.760Z,18.55
2024-02-11T04:52:56.142Z,16.48
2024-02-11T04:55:41.330Z,18.27
2024-02-11T04:58:15.279Z,19.80
2024-02-11T05:00:43.034Z,20.70
2024-02-11T05:03:12.145Z,21.90
2024-02-11T05:05:43.009Z,17.60
2024-02-11T05:08:11.422Z,18.38
2024-02-11T05:10:40.422Z,19.35
2024-02-11T05:13:13.957Z,23.55
2024-02-11T05:15:45.264Z,16.58
2024-02-11T05:18:13.199Z,17.77
2024-02-11T05:20:40.447Z,18.20
2024-02-11T05:23:10.336Z,21.50
2024-02-11T05:25:41.270Z,17.77
2024-02-11T05:28:14.259Z,19.38
2024-02-11T05:30:49.016Z,18.75
2024-02-11T05:33:19.031Z,19.33
2024-02-11T05:35:46.962Z,20.98
2024-02-11T05:38:14.676Z,18.52
2024-02-11T05:40:42.840Z,19.35
2024-02-11T05:43:10.508Z,15.82
2024-02-11T05:45:37.818Z,18.15
2024-02-11T05:48:05.384Z,19.70
2024-02-11T05:50:32.561Z,17.30
2024-02-11T05:52:59.691Z,17.75
2024-02-11T05:55:27.777Z,17.00
2024-02-11T05:57:55.153Z,18.00
2024-02-11T06:00:26.672Z,21.25
2024-02-11T06:02:57.840Z,19.77
2024-02-11T06:05:25.421Z,19.45
2024-02-11T06:07:56.369Z,17.75
2024-02-11T06:10:24.859Z,20.27
2024-02-11T06:12:51.934Z,22.83
2024-02-11T06:15:22.638Z,21.35
2024-02-11T06:17:50.470Z,21.80
2024-02-11T06:20:20.009Z,21.30
2024-02-11T06:22:53.385Z,22.55
2024-02-11T06:25:26.659Z,21.10
2024-02-11T06:27:54.687Z,22.73
2024-02-11T06:30:22.652Z,18.58
2024-02-11T06:32:55.667Z,21.25
2024-02-11T06:35:23.306Z,18.60
2024-02-11T06:37:51.569Z,21.30
2024-02-11T06:40:23.516Z,21.60
2024-02-11T06:42:54.374Z,20.67
2024-02-11T06:45:21.820Z,23.35
2024-02-11T06:47:49.588Z,21.48
2024-02-11T06:50:18.110Z,19.55
2024-02-11T06:52:46.106Z,17.05
2024-02-11T06:55:17.721Z,17.63
2024-02-11T06:57:46.029Z,14.67
2024-02-11T07:00:13.958Z,20.23
2024-02-11T07:02:41.396Z,17.48
2024-02-11T07:05:11.653Z,18.13
2024-02-11T07:07:39.413Z,20.90
2024-02-11T07:10:08.524Z,18.30
2024-02-11T07:12:35.916Z,20.83
2024-02-11T07:15:07.375Z,17.48
2024-02-11T07:17:34.789Z,21.33
2024-02-11T07:20:04.057Z,19.95
2024-02-11T07:22:31.186Z,16.98
2024-02-11T07:24:58.654Z,20.77
2024-02-11T07:27:27.883Z,19.48
2024-02-11T07:29:55.360Z,21.25
2024-02-11T07:32:23.069Z,19.90
2024-02-11T07:34:51.811Z,19.83
2024-02-11T07:37:19.966Z,20.02
2024-02-11T07:39:47.183Z,20.55
2024-02-11T07:42:14.144Z,20.88
2024-02-11T07:44:41.886Z,26.23
2024-02-11T07:47:11.101Z,23.80
2024-02-11T07:49:38.080Z,21.45
2024-02-11T07:52:05.302Z,24.90
2024-02-11T07:54:34.526Z,21.17
2024-02-11T07:57:04.112Z,22.23
2024-02-11T07:59:31.065Z,22.80
2024-02-11T08:01:58.175Z,28.73
2024-02-11T08:04:25.202Z,23.75
2024-02-11T08:06:52.210Z,26.75
2024-02-11T08:09:19.289Z,24.92
2024-02-11T08:11:46.534Z,27.27
2024-02-11T08:14:13.587Z,27.60
2024-02-11T08:16:40.659Z,27.33
2024-02-11T08:19:10.266Z,23.95
2024-02-11T08:21:37.690Z,24.75
2024-02-11T08:24:05.084Z,22.90
2024-02-11T08:26:32.213Z,25.92
2024-02-11T08:29:05.359Z,21.65
2024-02-11T08:31:32.320Z,21.95
2024-02-11T08:33:59.634Z,21.60
2024-02-11T08:36:26.763Z,25.17
2024-02-11T08:38:54.166Z,26.27
2024-02-11T08:41:21.755Z,25.75
2024-02-11T08:43:49.309Z,27.67
2024-02-11T08:46:16.647Z,22.38
2024-02-11T08:48:43.914Z,23.48
2024-02-11T08:51:16.878Z,27.67
2024-02-11T08:53:44.012Z,31.00
2024-02-11T08:56:11.519Z,24.48
2024-02-11T08:58:39.061Z,24.05
2024-02-11T09:01:08.877Z,22.48
2024-02-11T09:03:38.283Z,24.23
2024-02-11T09:06:08.511Z,23.05
2024-02-11T09:08:35.653Z,25.23
2024-02-11T09:11:07.883Z,23.15
2024-02-11T09:13:39.675Z,22.52
2024-02-11T09:16:07.666Z,20.35
2024-02-11T09:18:34.679Z,20.02
2024-02-11T09:21:01.794Z,18.85
2024-02-11T09:23:29.696Z,21.83
2024-02-11T09:25:56.782Z,19.50
2024-02-11T09:28:24.360Z,21.02
2024-02-11T09:30:51.417Z,22.45
2024-02-11T09:33:18.897Z,23.90
2024-02-11T09:35:47.547Z,25.65
2024-02-11T09:38:16.504Z,27.52
2024-02-11T09:40:45.210Z,27.05
2024-02-11T09:43:12.390Z,30.67
2024-02-11T09:45:39.485Z,29.23
2024-02-11T09:48:06.806Z,28.17
2024-02-11T09:50:36.908Z,28.55
2024-02-11T09:53:04.563Z,29.63
2024-02-11T09:55:31.578Z,29.38
2024-02-11T09:57:58.587Z,31.83
2024-02-11T10:00:26.525Z,28.90
2024-02-11T10:02:55.969Z,34.20
2024-02-11T10:05:24.932Z,29.45
2024-02-11T10:07:53.959Z,30.90
2024-02-11T10:10:21.789Z,32.08
2024-02-11T10:12:48.842Z,30.25
2024-02-11T10:15:18.722Z,29.10
2024-02-11T10:17:46.844Z,31.80
2024-02-11T10:20:14.571Z,29.02
2024-02-11T10:22:43.421Z,32.78
2024-02-11T10:25:12.939Z,30.75
2024-02-11T10:27:40.347Z,30.33
2024-02-11T10:30:11.396Z,28.30
2024-02-11T10:32:39.253Z,33.00
2024-02-11T10:35:06.996Z,30.65
2024-02-11T10:37:42.767Z,28.98
2024-02-11T10:40:11.577Z,29.85
2024-02-11T10:42:42.449Z,36.08
2024-02-11T10:45:11.224Z,34.03
2024-02-11T10:47:38.822Z,29.08
2024-02-11T10:50:08.035Z,31.75
2024-02-11T10:52:41.196Z,32.65
2024-02-11T10:55:12.882Z,31.05
2024-02-11T10:58:01.572Z,33.97
2024-02-11T11:00:28.827Z,30.92
2024-02-11T11:03:00.107Z,34.38
2024-02-11T11:05:49.041Z,33.80
2024-02-11T11:08:16.261Z,35.00
2024-02-11T11:10:44.429Z,25.75
2024-02-11T11:13:11.923Z,28.52
2024-02-11T11:15:39.916Z,26.58
2024-02-11T11:18:09.950Z,28.15
2024-02-11T11:20:38.342Z,32.72
2024-02-11T11:23:07.669Z,28.65
2024-02-11T11:25:36.152Z,26.95
2024-02-11T11:28:16.019Z,29.85
2024-02-11T11:30:43.858Z,26.13
2024-02-11T11:33:10.964Z,27.05
2024-02-11T11:35:37.959Z,24.92
2024-02-11T11:38:05.573Z,23.67
2024-02-11T11:40:37.538Z,23.35
2024-02-11T11:43:28.961Z,26.00
2024-02-11T11:45:59.941Z,23.58
2024-02-11T11:48:28.744Z,22.13
2024-02-11T11:51:00.421Z,23.63
2024-02-11T11:53:28.373Z,22.00
2024-02-11T11:55:57.686Z,22.05
2024-02-11T11:58:26.599Z,21.90
2024-02-11T12:01:00.761Z,19.23
2024-02-11T12:03:32.100Z,19.65
2024-02-11T12:06:02.551Z,22.30
2024-02-11T12:08:30.098Z,18.10
2024-02-11T12:11:04.999Z,17.98
2024-02-11T12:13:34.197Z,22.02
2024-02-11T12:16:03.647Z,17.73
2024-02-11T12:18:32.546Z,21.90
2024-02-11T12:20:59.529Z,15.15
2024-02-11T12:23:26.680Z,22.58
2024-02-11T12:25:58.055Z,16.65
2024-02-11T12:28:28.901Z,19.13
2024-02-11T12:31:16.516Z,19.48
2024-02-11T12:33:44.372Z,21.02
2024-02-11T12:36:24.239Z,21.80
2024-02-11T12:38:53.057Z,23.60
2024-02-11T12:41:20.969Z,19.38
2024-02-11T12:43:48.783Z,21.15
2024-02-11T12:46:16.028Z,20.83
2024-02-11T12:48:44.640Z,21.80
2024-02-11T12:51:13.300Z,22.92
2024-02-11T12:53:41.294Z,19.25
2024-02-11T12:56:12.224Z,21.08
2024-02-11T12:58:40.262Z,23.58
2024-02-11T13:01:13.408Z,21.17
2024-02-11T13:03:40.773Z,21.83
2024-02-11T13:06:08.514Z,18.52
2024-02-11T13:08:35.873Z,17.65
2024-02-11T13:11:03.453Z,21.80
2024-02-11T13:13:33.263Z,20.08
2024-02-11T13:16:03.056Z,17.45
2024-02-11T13:18:30.309Z,18.08
2024-02-11T13:20:59.345Z,18.67
2024-02-11T13:23:27.263Z,19.75
2024-02-11T13:25:54.611Z,19.38
2024-02-11T13:28:22.818Z,16.30
2024-02-11T13:31:03.426Z,20.90
2024-02-11T13:33:37.960Z,16.27
2024-02-11T13:36:05.408Z,15.90
2024-02-11T13:38:33.170Z,15.32
2024-02-11T13:41:00.181Z,17.52
2024-02-11T13:43:27.143Z,14.35
2024-02-11T13:45:54.067Z,16.10
2024-02-11T13:48:21.681Z,12.02
2024-02-11T13:50:48.870Z,13.70
2024-02-11T13:53:15.867Z,14.05
2024-02-11T13:55:46.069Z,18.23
2024-02-11T13:58:13.164Z,14.82
2024-02-11T14:00:40.240Z,14.43
2024-02-11T14:03:09.697Z,15.40
2024-02-11T14:05:37.574Z,13.93
2024-02-11T14:08:06.349Z,14.23
2024-02-11T14:10:33.547Z,13.95
2024-02-11T14:13:04.426Z,17.17
2024-02-11T14:15:32.141Z,16.35
2024-02-11T14:18:02.515Z,14.30
2024-02-11T14:20:31.558Z,17.58
2024-02-11T14:22:58.606Z,19.38
2024-02-11T14:25:26.407Z,14.60
2024-02-11T14:27:55.152Z,13.27
2024-02-11T14:30:22.226Z,16.02
2024-02-11T14:32:49.929Z,14.48
2024-02-11T14:35:17.344Z,13.43
2024-02-11T14:37:44.653Z,14.25
2024-02-11T14:40:15.876Z,13.43
2024-02-11T14:42:45.219Z,16.20
2024-02-11T14:45:12.419Z,14.18
2024-02-11T14:47:40.262Z,15.93
2024-02-11T14:50:10.421Z,13.70
2024-02-11T14:52:38.426Z,13.57
2024-02-11T14:55:06.247Z,14.63
2024-02-11T14:57:34.518Z,11.10
2024-02-11T15:00:06.155Z,11.60
2024-02-11T15:02:33.531Z,13.93
2024-02-11T15:05:00.695Z,14.02
2024-02-11T15:07:28.032Z,14.27
2024-02-11T15:09:57.274Z,12.10
2024-02-11T15:12:27.718Z,14.35
2024-02-11T15:14:55.396Z,13.38
2024-02-11T15:17:22.488Z,13.18
2024-02-11T15:19:51.402Z,14.73
2024-02-11T15:22:18.646Z,13.50
2024-02-11T15:24:47.699Z,13.10
2024-02-11T15:27:17.113Z,13.10
2024-02-11T15:29:45.162Z,15.02
2024-02-11T15:32:13.149Z,13.18
2024-02-11T15:34:40.334Z,12.38
2024-02-11T15:37:08.739Z,13.25
2024-02-11T15:39:35.961Z,11.68
2024-02-11T15:42:05.461Z,15.10
2024-02-11T15:44:33.457Z,14.95
2024-02-11T15:47:01.244Z,12.48
2024-02-11T15:49:28.886Z,12.00
2024-02-11T15:51:56.179Z,13.35
2024-02-11T15:54:23.745Z,12.00
2024-02-11T15:56:50.802Z,15.23
2024-02-11T15:59:18.470Z,12.68
2024-02-11T16:01:45.857Z,14.35
2024-02-11T16:04:13.822Z,15.73
2024-02-11T16:06:42.364Z,11.38
2024-02-11T16:09:10.470Z,12.20
2024-02-11T16:11:37.639Z,14.10
2024-02-11T16:14:07.083Z,14.80
2024-02-11T16:16:38.624Z,12.63
2024-02-11T16:19:06.833Z,12.60
2024-02-11T16:21:33.828Z,13.40
2024-02-11T16:24:01.565Z,14.80
2024-02-11T16:26:33.571Z,13.27
2024-02-11T16:29:01.152Z,14.25
2024-02-11T16:31:29.615Z,16.10
2024-02-11T16:33:56.848Z,14.27
2024-02-11T16:36:23.995Z,17.95
2024-02-11T16:38:52.676Z,14.30
2024-02-11T16:41:22.611Z,15.00
2024-02-11T16:43:50.002Z,16.20
2024-02-11T16:46:17.126Z,14.57
2024-02-11T16:48:44.246Z,13.48
2024-02-11T16:51:11.450Z,13.55
2024-02-11T16:53:38.373Z,15.02
2024-02-11T16:56:15.187Z,19.55
2024-02-11T16:58:42.833Z,14.43
2024-02-11T17:01:11.769Z,14.75
2024-02-11T17:03:38.885Z,16.23
2024-02-11T17:06:06.492Z,16.00
2024-02-11T17:08:35.869Z,16.77
2024-02-11T17:11:08.411Z,18.05
2024-02-11T17:13:35.544Z,15.63
2024-02-11T17:16:05.759Z,12.88
2024-02-11T17:18:34.097Z,13.18
2024-02-11T17:21:11.161Z,15.02
2024-02-11T17:23:40.956Z,14.52
2024-02-11T17:26:09.170Z,12.27
2024-02-11T17:28:36.741Z,12.75
2024-02-11T17:31:04.459Z,13.88
2024-02-11T17:33:31.595Z,14.95
2024-02-11T17:35:59.634Z,12.50
2024-02-11T17:38:30.528Z,12.52
2024-02-11T17:40:58.689Z,15.90
2024-02-11T17:43:28.660Z,12.82
2024-02-11T17:45:57.882Z,13.15
2024-02-11T17:48:25.028Z,13.45
2024-02-11T17:50:53.987Z,12.98
2024-02-11T17:53:25.197Z,12.55
2024-02-11T17:55:55.144Z,12.75
2024-02-11T17:58:22.617Z,13.70
2024-02-11T18:00:56.693Z,14.20
2024-02-11T18:03:28.433Z,15.75
2024-02-11T18:05:56.407Z,17.05
2024-02-11T18:08:24.192Z,16.48
2024-02-11T18:10:51.574Z,16.58
2024-02-11T18:13:21.045Z,14.70
2024-02-11T18:15:48.238Z,13.48
2024-02-11T18:18:15.310Z,15.27
2024-02-11T18:20:42.468Z,14.60
2024-02-11T18:23:09.561Z,17.05
2024-02-11T18:25:54.485Z,16.45
2024-02-11T18:28:24.461Z,15.65
2024-02-11T18:30:51.999Z,16.05
2024-02-11T18:33:20.880Z,13.07
2024-02-11T18:35:49.048Z,14.32
2024-02-11T18:38:17.198Z,16.50
2024-02-11T18:40:44.722Z,17.13
2024-02-11T18:43:11.938Z,15.20
2024-02-11T18:45:38.997Z,17.23
2024-02-11T18:48:06.517Z,15.07
2024-02-11T18:50:33.645Z,14.32
2024-02-11T18:53:01.424Z,13.18
2024-02-11T18:55:28.594Z,11.85
2024-02-11T18:57:57.581Z,11.20
2024-02-11T19:00:26.939Z,11.05
2024-02-11T19:02:55.818Z,10.65
2024-02-11T19:05:23.258Z,11.95
2024-02-11T19:07:51.164Z,12.32
2024-02-11T19:10:22.456Z,10.73
2024-02-11T19:12:49.647Z,9.95
2024-02-11T19:15:16.617Z,12.32
2024-02-11T19:17:48.758Z,11.80
2024-02-11T19:20:18.197Z,10.30
2024-02-11T19:22:46.734Z,10.75
2024-02-11T19:25:14.831Z,10.02
2024-02-11T19:27:42.229Z,11.52
2024-02-11T19:30:10.535Z,13.48
2024-02-11T19:32:40.724Z,15.80
2024-02-11T19:35:10.887Z,14.35
2024-02-11T19:37:39.879Z,13.07
2024-02-11T19:40:09.918Z,11.32
2024-02-11T19:42:37.175Z,9.73
2024-02-11T19:45:05.652Z,9.02
2024-02-11T19:47:35.367Z,8.27
2024-02-11T19:50:05.439Z,7.80
2024-02-11T19:52:34.226Z,8.77
2024-02-11T19:55:02.487Z,9.15
2024-02-11T19:57:29.908Z,10.35
2024-02-11T19:59:58.238Z,10.10
2024-02-11T20:02:28.275Z,9.02
2024-02-11T20:04:55.809Z,10.48
2024-02-11T20:07:26.153Z,8.82
2024-02-11T20:09:53.619Z,10.90
2024-02-11T20:12:23.390Z,9.10
2024-02-11T20:14:52.098Z,8.73
2024-02-11T20:17:19.419Z,10.70
2024-02-11T20:19:47.243Z,12.15
2024-02-11T20:22:14.418Z,10.27
2024-02-11T20:24:41.699Z,12.20
2024-02-11T20:27:09.093Z,13.20
2024-02-11T20:29:39.919Z,14.07
2024-02-11T20:32:08.897Z,18.08
2024-02-11T20:34:39.279Z,18.60
2024-02-11T20:37:06.303Z,14.48
2024-02-11T20:39:33.322Z,11.45
2024-02-11T20:42:00.849Z,9.55
2024-02-11T20:44:28.150Z,10.57
2024-02-11T20:46:55.134Z,11.18
2024-02-11T20:49:22.557Z,10.20
2024-02-11T20:51:49.580Z,11.50
2024-02-11T20:54:16.505Z,11.90
2024-02-11T20:56:43.510Z,12.52
2024-02-11T20:59:11.002Z,12.95
2024-02-11T21:01:38.095Z,10.88
2024-02-11T21:04:09.160Z,12.45
2024-02-11T21:06:36.981Z,11.40
2024-02-11T21:09:07.028Z,10.13
2024-02-11T21:11:34.162Z,10.75
2024-02-11T21:14:02.466Z,14.07
2024-02-11T21:16:29.558Z,10.60
2024-02-11T21:18:58.148Z,11.25
2024-02-11T21:21:26.340Z,9.82
2024-02-11T21:23:53.406Z,10.75
2024-02-11T21:26:20.854Z,10.20
2024-02-11T21:28:49.204Z,12.98
2024-02-11T21:31:21.987Z,11.00
2024-02-11T21:33:51.801Z,13.50
2024-02-11T21:36:19.330Z,12.35
2024-02-11T21:38:46.428Z,15.30
2024-02-11T21:41:17.142Z,11.07
2024-02-11T21:43:44.654Z,17.75
2024-02-11T21:46:11.779Z,9.55
2024-02-11T21:48:42.359Z,11.98
2024-02-11T21:51:11.115Z,15.25
2024-02-11T21:53:38.760Z,8.27
2024-02-11T21:56:06.901Z,13.23
2024-02-11T21:58:34.689Z,9.60
2024-02-11T22:01:02.163Z,10.40
2024-02-11T22:03:32.103Z,12.43
2024-02-11T22:05:59.202Z,8.90
2024-02-11T22:08:26.570Z,16.70
2024-02-11T22:10:53.807Z,12.20
2024-02-11T22:13:20.914Z,9.55
2024-02-11T22:15:48.727Z,12.00
2024-02-11T22:18:16.692Z,13.13
2024-02-11T22:20:44.685Z,14.95
2024-02-11T22:23:12.682Z,12.38
2024-02-11T22:25:39.789Z,12.80
2024-02-11T22:28:06.901Z,12.32
2024-02-11T22:30:33.894Z,14.18
2024-02-11T22:33:01.069Z,12.95
2024-02-11T22:35:28.145Z,11.55
2024-02-11T22:37:55.758Z,15.35
2024-02-11T22:40:22.811Z,9.77
2024-02-11T22:42:49.884Z,11.85
2024-02-11T22:45:18.034Z,15.75
2024-02-11T22:47:46.173Z,15.80
2024-02-11T22:50:15.335Z,14.77
2024-02-11T22:52:42.390Z,15.80
2024-02-11T22:55:12.157Z,13.70
2024-02-11T22:57:39.589Z,14.35
2024-02-11T23:00:28.772Z,11.52
2024-02-11T23:03:05.559Z,14.93
2024-02-11T23:05:39.232Z,11.13
2024-02-11T23:08:07.003Z,12.15
2024-02-11T23:10:34.272Z,10.93
2024-02-11T23:13:01.293Z,14.48
2024-02-11T23:15:31.770Z,16.73
2024-02-11T23:18:00.746Z,12.80
2024-02-11T23:20:28.789Z,20.50
2024-02-11T23:22:59.649Z,10.98
2024-02-11T23:25:27.749Z,12.85
2024-02-11T23:27:54.718Z,13.95
2024-02-11T23:30:25.481Z,9.13
2024-02-11T23:32:52.750Z,12.50
2024-02-11T23:35:20.803Z,9.32
2024-02-11T23:37:48.001Z,11.18
2024-02-11T23:40:15.640Z,13.63
2024-02-11T23:42:44.237Z,13.02
2024-02-11T23:45:11.325Z,10.93
2024-02-11T23:47:38.593Z,10.75
2024-02-11T23:50:07.870Z,12.88
2024-02-11T23:52:37.325Z,14.02
2024-02-11T23:55:06.176Z,11.68
2024-02-11T23:57:33.629Z,16.67
